Time;durP1;ratioP1;P1;durP2;ratioP2;P2;SDS_P1;SDS_P2;PMS_P1;PMS_P2;Temp;Humidity;BMP_temperature;BMP_pressure;BME280_temperature;BME280_humidity;BME280_pressure;Samples;Min_cycle;Max_cycle;Signal;HPM_P1;HPM_P2
2021/12/03 00:01:18;;;;;;;4.72;3.28;;;17.60;43.20;;;;;;4995805;28;20303;-52
2021/12/03 00:03:47;;;;;;;4.35;3.67;;;17.60;43.10;;;;;;5013510;28;20197;-52
2021/12/03 00:06:14;;;;;;;3.92;3.25;;;17.50;43.10;;;;;;5037065;22;20257;-55
2021/12/03 00:08:41;;;;;;;4.05;3.33;;;17.50;43.20;;;;;;4995672;28;20697;-55
2021/12/03 00:11:10;;;;;;;4.10;3.17;;;17.50;43.30;;;;;;4995756;28;20196;-54
2021/12/03 00:13:38;;;;;;;4.20;3.42;;;17.40;43.20;;;;;;4995853;28;20204;-54
2021/12/03 00:16:05;;;;;;;4.60;3.40;;;17.40;43.20;;;;;;5013555;28;20251;-55
2021/12/03 00:18:33;;;;;;;3.45;3.13;;;17.40;43.50;;;;;;4995510;28;20212;-54
2021/12/03 00:21:03;;;;;;;5.13;3.63;;;17.40;43.50;;;;;;5013233;28;20665;-54
2021/12/03 00:23:31;;;;;;;4.53;3.63;;;17.30;43.50;;;;;;5013239;28;20663;-54
2021/12/03 00:26:00;;;;;;;3.47;2.85;;;17.30;43.60;;;;;;5013501;28;20271;-54
2021/12/03 00:28:27;;;;;;;4.18;3.10;;;17.30;43.60;;;;;;4995478;28;20231;-54
2021/12/03 00:30:54;;;;;;;4.93;3.75;;;17.20;44.10;;;;;;4995575;28;20243;-55
2021/12/03 00:33:21;;;;;;;3.67;3.38;;;17.20;43.60;;;;;;4995556;28;20255;-54
2021/12/03 00:35:48;;;;;;;5.05;3.17;;;17.20;43.60;;;;;;5014847;28;20567;-54
2021/12/03 00:38:17;;;;;;;4.30;3.08;;;17.10;43.50;;;;;;4999181;28;20692;-54
2021/12/03 00:40:44;;;;;;;3.22;2.85;;;17.10;43.50;;;;;;5016994;28;20301;-54
2021/12/03 00:43:11;;;;;;;4.90;2.95;;;17.10;43.70;;;;;;5016839;28;20204;-54
2021/12/03 00:45:38;;;;;;;4.00;3.17;;;17.10;43.60;;;;;;4999260;28;20243;-54
2021/12/03 00:48:05;;;;;;;3.22;2.85;;;17.10;43.80;;;;;;5016880;28;20311;-54
2021/12/03 00:50:32;;;;;;;3.38;2.90;;;17.10;43.70;;;;;;4999050;28;20307;-54
2021/12/03 00:53:00;;;;;;;3.00;2.70;;;17.00;43.50;;;;;;5016594;28;20208;-54
2021/12/03 00:55:30;;;;;;;3.65;3.15;;;17.00;43.60;;;;;;4999149;28;20603;-54
2021/12/03 00:57:57;;;;;;;4.25;2.88;;;17.00;44.30;;;;;;4999385;28;20613;-54
2021/12/03 01:00:27;;;;;;;3.33;3.00;;;17.00;43.80;;;;;;4998996;28;20203;-54
2021/12/03 01:02:55;;;;;;;4.18;3.40;;;16.90;43.70;;;;;;4998795;28;20665;-54
2021/12/03 01:05:22;;;;;;;3.70;3.22;;;17.00;43.90;;;;;;5016319;28;20558;-54
2021/12/03 01:07:49;;;;;;;3.50;2.70;;;16.90;43.90;;;;;;5016143;28;20223;-54
2021/12/03 01:10:16;;;;;;;3.55;2.90;;;16.90;43.80;;;;;;4999275;28;20225;-54
2021/12/03 01:12:45;;;;;;;4.85;2.97;;;16.90;43.60;;;;;;5016576;28;20272;-54
2021/12/03 01:15:15;;;;;;;3.53;2.83;;;16.90;44.00;;;;;;5016252;28;20216;-54
2021/12/03 01:17:42;;;;;;;3.47;3.00;;;16.80;43.90;;;;;;5016416;28;20217;-54
2021/12/03 01:20:10;;;;;;;3.05;2.65;;;16.80;43.90;;;;;;5016435;28;20184;-55
2021/12/03 01:22:37;;;;;;;3.17;2.70;;;16.80;43.80;;;;;;4998627;28;20228;-54
2021/12/03 01:25:05;;;;;;;3.42;2.67;;;16.80;43.80;;;;;;4998402;28;20208;-54
2021/12/03 01:27:32;;;;;;;2.70;2.50;;;16.80;44.10;;;;;;5016235;28;20323;-54
2021/12/03 01:30:01;;;;;;;3.20;2.90;;;16.70;43.80;;;;;;5015884;28;20204;-54
2021/12/03 01:32:28;;;;;;;2.85;2.55;;;16.70;43.90;;;;;;5015956;28;20207;-54
2021/12/03 01:34:55;;;;;;;4.10;2.80;;;16.70;43.80;;;;;;5015928;28;20200;-55
2021/12/03 01:37:23;;;;;;;2.90;2.60;;;16.70;43.80;;;;;;4998189;28;20216;-54
2021/12/03 01:39:50;;;;;;;3.15;2.60;;;16.70;44.20;;;;;;4998226;28;20296;-55
2021/12/03 01:42:17;;;;;;;3.03;2.72;;;16.60;44.10;;;;;;5015824;28;20661;-54
2021/12/03 01:44:45;;;;;;;4.13;2.92;;;16.60;43.90;;;;;;4998281;28;20262;-54
2021/12/03 01:47:13;;;;;;;2.83;2.53;;;16.70;44.10;;;;;;4996593;28;20311;-54
2021/12/03 01:49:40;;;;;;;3.05;2.58;;;16.60;44.10;;;;;;5015870;28;20205;-54
2021/12/03 01:52:08;;;;;;;2.75;2.55;;;16.60;44.10;;;;;;4997960;28;20205;-54
2021/12/03 01:54:35;;;;;;;3.85;2.58;;;16.60;44.10;;;;;;5015526;28;20662;-54
2021/12/03 01:57:02;;;;;;;2.90;2.63;;;16.50;43.90;;;;;;5015435;28;20216;-54
2021/12/03 01:59:29;;;;;;;3.85;2.60;;;16.50;44.10;;;;;;5015457;28;20227;-54
2021/12/03 02:01:56;;;;;;;3.15;2.50;;;16.50;44.00;;;;;;4997818;28;20228;-54
2021/12/03 02:04:24;;;;;;;2.75;2.40;;;16.50;44.10;;;;;;5015409;28;20724;-54
2021/12/03 02:06:51;;;;;;;2.92;2.58;;;16.50;44.10;;;;;;5015151;28;20221;-54
2021/12/03 02:09:18;;;;;;;3.28;2.60;;;16.50;44.20;;;;;;5015238;28;20291;-54
2021/12/03 02:11:45;;;;;;;3.90;2.75;;;16.40;44.30;;;;;;5015640;28;20189;-54
2021/12/03 02:14:12;;;;;;;2.75;2.40;;;16.50;44.80;;;;;;4997544;28;20662;-54
2021/12/03 02:16:40;;;;;;;3.05;2.53;;;16.40;44.10;;;;;;4997425;28;20220;-54
2021/12/03 02:19:07;;;;;;;2.88;2.67;;;16.40;44.30;;;;;;4997618;28;20224;-54
2021/12/03 02:21:35;;;;;;;3.00;2.70;;;16.40;44.10;;;;;;4998179;28;20207;-54
2021/12/03 02:24:02;;;;;;;2.80;2.60;;;16.40;44.20;;;;;;4997735;28;20207;-55
2021/12/03 02:26:29;;;;;;;2.85;2.13;;;16.40;44.20;;;;;;4998292;28;20247;-55
2021/12/03 02:28:57;;;;;;;2.80;2.60;;;16.30;44.30;;;;;;5014958;28;20236;-54
2021/12/03 02:31:25;;;;;;;3.08;2.55;;;16.30;44.30;;;;;;5014865;28;20193;-55
2021/12/03 02:33:52;;;;;;;3.05;2.70;;;16.30;44.30;;;;;;4997299;28;20251;-54
2021/12/03 02:36:20;;;;;;;3.53;2.33;;;16.30;44.50;;;;;;4999435;28;20204;-54
2021/12/03 02:38:49;;;;;;;2.30;2.03;;;16.30;44.40;;;;;;4997428;28;20200;-54
2021/12/03 02:41:16;;;;;;;2.85;2.13;;;16.30;44.50;;;;;;5014816;28;20193;-54
2021/12/03 02:43:43;;;;;;;3.63;2.17;;;16.20;44.40;;;;;;5014550;28;20300;-54
2021/12/03 02:46:09;;;;;;;2.55;2.35;;;16.20;44.40;;;;;;4997036;28;20196;-54
2021/12/03 02:48:36;;;;;;;2.45;2.25;;;16.20;44.40;;;;;;5014685;28;20244;-54
2021/12/03 02:51:50;;;;;;;2.58;2.38;;;16.20;44.40;;;;;;5014364;28;20204;-54
2021/12/03 02:54:45;;;;;;;2.38;2.17;;;16.20;44.30;;;;;;4997078;28;20247;-54
2021/12/03 02:57:13;;;;;;;2.40;2.20;;;16.10;44.50;;;;;;5014354;28;20630;-54
2021/12/03 02:59:40;;;;;;;2.70;2.35;;;16.10;44.40;;;;;;5014077;28;20283;-54
2021/12/03 03:02:07;;;;;;;2.78;2.53;;;16.10;44.50;;;;;;5014751;28;20197;-54
2021/12/03 03:04:35;;;;;;;2.80;2.50;;;16.10;44.50;;;;;;4997637;28;20204;-54
2021/12/03 03:07:01;;;;;;;2.97;2.67;;;16.10;44.50;;;;;;4996841;28;20294;-54
2021/12/03 03:09:31;;;;;;;2.63;2.40;;;16.10;44.70;;;;;;4996528;28;20780;-54
2021/12/03 03:11:59;;;;;;;2.83;2.47;;;16.00;44.50;;;;;;5014125;28;20236;-54
2021/12/03 03:14:30;;;;;;;2.60;2.42;;;16.00;45.10;;;;;;5014231;28;20192;-54
2021/12/03 03:17:19;;;;;;;2.25;2.05;;;16.00;44.50;;;;;;5068058;22;20324;-66
2021/12/03 03:19:46;;;;;;;2.65;2.38;;;16.00;45.10;;;;;;4996061;28;20197;-66
2021/12/03 03:22:13;;;;;;;2.45;2.25;;;16.00;44.50;;;;;;5013725;28;20185;-65
2021/12/03 03:24:40;;;;;;;2.75;2.45;;;16.00;44.50;;;;;;4996155;28;20232;-66
2021/12/03 03:27:08;;;;;;;2.50;2.30;;;15.90;44.50;;;;;;4995781;28;20216;-66
2021/12/03 03:29:35;;;;;;;2.60;2.40;;;15.90;44.50;;;;;;4995754;28;20221;-66
2021/12/03 03:32:03;;;;;;;2.85;2.55;;;15.90;44.50;;;;;;5013520;28;20204;-66
2021/12/03 03:34:29;;;;;;;2.70;2.50;;;15.90;44.70;;;;;;4995852;28;20205;-66
2021/12/03 03:36:57;;;;;;;3.35;2.63;;;15.90;44.40;;;;;;4995668;28;20251;-66
2021/12/03 03:39:24;;;;;;;2.70;2.50;;;15.90;44.50;;;;;;4995735;28;20199;-66
2021/12/03 03:41:51;;;;;;;2.53;2.30;;;15.90;44.60;;;;;;5013309;28;20192;-66
2021/12/03 03:44:19;;;;;;;2.42;2.22;;;15.90;44.60;;;;;;4995706;28;20211;-66
2021/12/03 03:46:47;;;;;;;2.00;1.80;;;15.80;44.50;;;;;;4995736;28;20275;-66
2021/12/03 03:49:14;;;;;;;2.28;2.10;;;15.80;44.50;;;;;;4995672;28;20292;-66
2021/12/03 03:51:41;;;;;;;2.42;2.22;;;15.80;44.70;;;;;;5013549;28;20196;-66
2021/12/03 03:54:08;;;;;;;2.70;2.50;;;15.80;44.70;;;;;;4995978;28;20203;-66
2021/12/03 03:56:36;;;;;;;2.10;2.00;;;15.80;44.70;;;;;;4995747;28;20247;-66
2021/12/03 03:59:03;;;;;;;2.58;2.35;;;15.80;44.70;;;;;;5013150;28;20239;-66
2021/12/03 04:01:31;;;;;;;2.97;2.65;;;15.80;44.70;;;;;;5013105;28;20193;-66
2021/12/03 04:03:58;;;;;;;3.45;2.20;;;15.80;44.70;;;;;;4995520;28;20200;-67
2021/12/03 04:06:25;;;;;;;2.58;2.38;;;15.70;44.70;;;;;;5013057;28;20208;-67
2021/12/03 04:08:52;;;;;;;2.70;2.20;;;15.70;44.70;;;;;;4995529;28;20224;-66
2021/12/03 04:11:20;;;;;;;2.50;2.30;;;15.80;44.90;;;;;;5015902;28;20203;-66
2021/12/03 04:13:47;;;;;;;2.55;2.35;;;15.70;44.60;;;;;;4999529;28;20205;-66
2021/12/03 04:16:14;;;;;;;2.50;2.30;;;15.70;44.70;;;;;;5016798;28;20223;-67
2021/12/03 04:18:43;;;;;;;2.28;2.10;;;15.70;44.80;;;;;;4999475;28;20220;-66
2021/12/03 04:21:10;;;;;;;2.65;2.45;;;15.70;45.00;;;;;;4999325;28;20233;-66
2021/12/03 04:23:37;;;;;;;2.53;2.33;;;15.70;45.00;;;;;;4999328;28;20197;-66
2021/12/03 04:26:04;;;;;;;2.70;2.50;;;15.70;44.80;;;;;;4999265;28;20251;-66
2021/12/03 04:28:32;;;;;;;2.50;2.30;;;15.70;44.60;;;;;;4999164;28;20216;-66
2021/12/03 04:30:59;;;;;;;2.78;2.30;;;15.70;44.60;;;;;;4999283;28;20280;-66
2021/12/03 04:33:26;;;;;;;3.05;2.38;;;15.70;44.40;;;;;;4999249;28;20291;-66
2021/12/03 04:35:55;;;;;;;2.30;2.10;;;15.70;44.40;;;;;;4998951;28;20311;-66
2021/12/03 04:38:22;;;;;;;2.38;2.17;;;15.80;44.50;;;;;;4999069;28;20208;-66
2021/12/03 04:40:49;;;;;;;2.47;2.33;;;15.80;44.40;;;;;;5016513;28;20291;-66
2021/12/03 04:43:16;;;;;;;2.72;2.53;;;15.80;44.50;;;;;;4998984;28;20213;-66
2021/12/03 04:45:43;;;;;;;2.80;2.50;;;15.90;44.40;;;;;;4998795;28;20739;-66
2021/12/03 04:48:10;;;;;;;2.70;2.50;;;15.90;44.40;;;;;;4998864;28;20212;-66
2021/12/03 04:50:42;;;;;;;2.70;2.50;;;15.90;44.30;;;;;;4998844;28;20296;-66
2021/12/03 04:53:10;;;;;;;2.42;2.22;;;15.90;44.20;;;;;;4998798;28;20217;-66
2021/12/03 04:55:38;;;;;;;2.70;2.50;;;15.90;44.20;;;;;;4998785;28;20311;-66
2021/12/03 04:58:05;;;;;;;2.50;2.30;;;15.90;44.30;;;;;;4998857;28;20668;-66
2021/12/03 05:00:33;;;;;;;2.85;2.38;;;15.90;44.20;;;;;;5016327;28;20199;-66
2021/12/03 05:03:00;;;;;;;2.88;2.55;;;16.00;44.30;;;;;;4998588;28;20200;-66
2021/12/03 05:05:31;;;;;;;2.30;2.10;;;16.00;44.30;;;;;;4998553;28;20197;-66
2021/12/03 05:07:59;;;;;;;2.40;2.20;;;16.00;44.40;;;;;;4998577;28;20199;-66
2021/12/03 05:10:27;;;;;;;2.72;2.40;;;16.00;44.40;;;;;;4998470;28;20701;-67
2021/12/03 05:12:55;;;;;;;2.20;2.10;;;16.00;44.30;;;;;;4998486;28;20207;-66
2021/12/03 05:15:22;;;;;;;2.30;2.20;;;16.00;44.10;;;;;;4998140;28;20205;-66
2021/12/03 05:17:49;;;;;;;2.88;2.13;;;16.00;43.90;;;;;;5016099;28;20731;-66
2021/12/03 05:20:17;;;;;;;2.35;2.15;;;16.10;44.10;;;;;;5016142;28;20188;-66
2021/12/03 05:22:43;;;;;;;2.25;2.10;;;16.10;44.10;;;;;;4998064;28;20251;-66
2021/12/03 05:25:10;;;;;;;2.38;2.28;;;16.10;44.00;;;;;;4998372;28;20197;-67
2021/12/03 05:27:40;;;;;;;2.40;2.20;;;16.20;44.00;;;;;;4998182;28;20303;-66
2021/12/03 05:30:08;;;;;;;2.13;1.92;;;16.20;44.50;;;;;;4998191;28;20648;-67
2021/12/03 05:32:35;;;;;;;2.40;2.20;;;16.20;43.80;;;;;;4998871;28;20207;-65
2021/12/03 05:35:02;;;;;;;2.42;2.22;;;16.20;43.70;;;;;;4999787;28;20291;-66
2021/12/03 05:37:29;;;;;;;2.30;2.20;;;16.30;43.70;;;;;;5000751;28;20613;-66
2021/12/03 05:39:56;;;;;;;2.63;2.42;;;16.30;43.70;;;;;;5017290;28;20319;-66
2021/12/03 05:42:23;;;;;;;3.10;2.25;;;16.30;43.60;;;;;;4999188;28;20205;-66
2021/12/03 05:44:53;;;;;;;2.85;2.20;;;16.40;43.60;;;;;;4999401;28;20234;-68
2021/12/03 05:47:21;;;;;;;2.38;2.17;;;16.40;43.40;;;;;;4998716;28;20742;-66
2021/12/03 05:49:48;;;;;;;2.67;2.33;;;16.40;43.40;;;;;;5016511;28;20256;-66
2021/12/03 05:52:15;;;;;;;2.28;2.17;;;16.40;43.40;;;;;;4998784;28;20280;-66
2021/12/03 05:54:43;;;;;;;2.55;2.35;;;16.40;43.20;;;;;;4998610;28;20236;-65
2021/12/03 05:57:10;;;;;;;2.45;2.25;;;16.40;43.10;;;;;;4998012;28;20224;-65
2021/12/03 05:59:37;;;;;;;2.72;2.53;;;16.50;43.10;;;;;;4998293;28;20614;-66
2021/12/03 06:02:05;;;;;;;2.75;2.55;;;16.50;43.00;;;;;;4997753;28;20196;-66
2021/12/03 06:04:33;;;;;;;2.05;1.95;;;16.50;43.00;;;;;;4997796;28;20209;-66
2021/12/03 06:07:00;;;;;;;3.15;2.30;;;16.50;43.00;;;;;;5013040;23;20597;-64
2021/12/03 06:09:27;;;;;;;2.50;2.30;;;16.60;43.10;;;;;;5015353;28;20209;-64
2021/12/03 06:11:54;;;;;;;3.00;2.50;;;16.60;43.10;;;;;;5015417;28;20204;-64
2021/12/03 06:14:21;;;;;;;2.53;2.33;;;16.60;42.90;;;;;;5015612;28;20220;-64
2021/12/03 06:16:48;;;;;;;2.58;2.38;;;16.60;42.80;;;;;;4997754;28;20212;-65
2021/12/03 06:19:17;;;;;;;2.40;2.20;;;16.60;42.70;;;;;;5015821;28;20605;-64
2021/12/03 06:21:44;;;;;;;3.00;2.47;;;16.70;43.60;;;;;;4997820;28;20204;-64
2021/12/03 06:24:11;;;;;;;2.38;2.25;;;16.70;43.20;;;;;;5015384;28;20286;-63
2021/12/03 06:26:38;;;;;;;2.38;2.17;;;16.70;43.20;;;;;;4997448;28;20197;-63
2021/12/03 06:29:05;;;;;;;2.50;2.30;;;16.70;43.20;;;;;;5014933;28;20208;-64
2021/12/03 06:31:33;;;;;;;2.72;2.15;;;16.80;43.20;;;;;;5015105;28;20243;-63
2021/12/03 06:34:00;;;;;;;2.22;2.00;;;16.80;43.20;;;;;;4996472;28;20252;-63
2021/12/03 06:36:29;;;;;;;2.30;2.13;;;16.80;43.20;;;;;;5014960;28;20201;-63
2021/12/03 06:38:57;;;;;;;5.68;2.60;;;16.80;43.00;;;;;;4997160;28;20193;-63
2021/12/03 06:41:25;;;;;;;2.60;2.40;;;16.80;43.20;;;;;;4997175;28;20205;-63
2021/12/03 06:43:52;;;;;;;2.85;2.58;;;16.80;43.20;;;;;;4996982;28;20221;-63
2021/12/03 06:46:19;;;;;;;2.20;2.10;;;16.80;43.00;;;;;;4997015;28;20205;-63
2021/12/03 06:48:47;;;;;;;2.85;2.60;;;16.80;42.90;;;;;;4996897;28;20204;-63
2021/12/03 06:51:14;;;;;;;3.90;2.30;;;16.90;42.50;;;;;;4996933;28;20291;-63
2021/12/03 06:53:46;;;;;;;3.72;2.40;;;16.90;43.30;;;;;;4997057;28;20201;-63
2021/12/03 06:56:21;;;;;;;2.38;2.17;;;16.90;43.90;;;;;;4997230;28;20555;-63
2021/12/03 06:58:48;;;;;;;2.30;2.10;;;16.90;43.20;;;;;;4997459;28;20672;-63
2021/12/03 07:01:15;;;;;;;2.00;1.90;;;16.90;43.20;;;;;;4999404;28;20331;-63
2021/12/03 07:03:42;;;;;;;2.30;2.10;;;16.90;43.20;;;;;;5015052;28;20195;-63
2021/12/03 07:06:09;;;;;;;2.10;2.00;;;16.90;43.20;;;;;;4996796;28;20315;-63
2021/12/03 07:08:36;;;;;;;2.55;2.35;;;16.90;43.20;;;;;;5014321;28;20276;-63
2021/12/03 07:11:05;;;;;;;2.10;1.90;;;16.90;43.10;;;;;;4996516;28;20291;-63
2021/12/03 07:13:32;;;;;;;2.70;2.20;;;16.90;43.00;;;;;;4996447;28;20712;-63
2021/12/03 07:15:59;;;;;;;3.22;2.10;;;16.90;42.70;;;;;;5014422;28;20227;-63
2021/12/03 07:18:27;;;;;;;2.30;2.10;;;16.90;42.70;;;;;;4996527;28;20204;-63
2021/12/03 07:20:54;;;;;;;3.15;2.30;;;16.90;43.40;;;;;;4996410;28;20200;-63
2021/12/03 07:23:22;;;;;;;2.60;2.00;;;16.90;42.60;;;;;;5013976;28;20280;-62
2021/12/03 07:25:49;;;;;;;2.75;2.30;;;16.90;42.80;;;;;;4995999;28;20224;-63
2021/12/03 07:28:18;;;;;;;2.42;2.30;;;16.90;42.40;;;;;;4996279;28;20193;-63
2021/12/03 07:30:45;;;;;;;2.60;2.40;;;16.90;42.50;;;;;;4996048;28;20279;-62
2021/12/03 07:33:14;;;;;;;2.25;2.10;;;16.90;42.40;;;;;;5013692;28;20201;-63
2021/12/03 07:35:44;;;;;;;2.17;2.03;;;17.00;42.50;;;;;;5013986;28;20217;-63
2021/12/03 07:38:12;;;;;;;2.88;2.05;;;17.00;42.40;;;;;;4997679;28;20201;-64
2021/12/03 07:40:40;;;;;;;2.60;2.13;;;17.00;42.50;;;;;;4996590;28;20212;-63
2021/12/03 07:43:07;;;;;;;2.70;2.50;;;17.00;42.30;;;;;;4996120;28;20216;-64
2021/12/03 07:45:36;;;;;;;2.60;2.40;;;17.00;42.40;;;;;;4996177;28;20224;-64
2021/12/03 07:48:04;;;;;;;2.47;2.30;;;17.00;42.30;;;;;;5013347;28;20747;-64
2021/12/03 07:50:36;;;;;;;2.35;2.25;;;17.00;42.30;;;;;;4995681;28;20225;-64
2021/12/03 07:53:03;;;;;;;2.20;2.00;;;17.00;42.40;;;;;;4996043;28;20288;-64
2021/12/03 07:55:30;;;;;;;2.28;2.17;;;17.00;42.30;;;;;;5013321;28;20212;-64
2021/12/03 07:57:58;;;;;;;2.55;2.20;;;17.00;42.30;;;;;;5013195;28;20201;-64
2021/12/03 08:00:26;;;;;;;2.53;2.33;;;17.00;42.30;;;;;;4995464;28;20192;-63
2021/12/03 08:02:54;;;;;;;2.50;2.30;;;17.10;42.30;;;;;;4995577;28;20196;-64
2021/12/03 08:05:22;;;;;;;2.58;2.13;;;17.00;42.30;;;;;;4995531;28;20212;-64
2021/12/03 08:07:50;;;;;;;2.30;2.10;;;17.00;42.20;;;;;;4995541;28;20205;-64
2021/12/03 08:10:17;;;;;;;2.40;2.20;;;17.00;42.20;;;;;;4995772;28;20307;-64
2021/12/03 08:12:44;;;;;;;2.33;2.13;;;17.10;42.30;;;;;;5013393;28;20280;-64
2021/12/03 08:15:11;;;;;;;2.38;2.17;;;17.10;42.80;;;;;;5013661;28;20326;-64
2021/12/03 08:17:40;;;;;;;2.40;2.20;;;17.10;42.30;;;;;;4995611;28;20669;-64
2021/12/03 08:20:09;;;;;;;2.65;2.45;;;17.10;42.20;;;;;;5013300;28;20319;-64
2021/12/03 08:22:37;;;;;;;2.63;2.42;;;17.10;42.20;;;;;;5012973;28;20228;-64
2021/12/03 08:25:05;;;;;;;2.90;2.70;;;17.10;42.00;;;;;;4995314;28;20220;-64
2021/12/03 08:27:32;;;;;;;3.03;2.72;;;17.10;42.10;;;;;;5013095;28;20192;-64
2021/12/03 08:30:00;;;;;;;3.28;3.03;;;17.20;42.10;;;;;;5013095;28;20259;-64
2021/12/03 08:32:27;;;;;;;3.55;2.72;;;17.20;42.10;;;;;;5013554;28;20197;-64
2021/12/03 08:34:54;;;;;;;3.70;2.38;;;17.20;42.10;;;;;;4995299;28;20649;-64
2021/12/03 08:37:23;;;;;;;3.03;2.83;;;17.20;42.10;;;;;;4995628;28;20201;-64
2021/12/03 08:39:50;;;;;;;2.72;2.47;;;17.20;41.90;;;;;;5013222;28;20287;-64
2021/12/03 08:42:18;;;;;;;2.88;2.67;;;17.20;42.00;;;;;;5012994;28;20284;-64
2021/12/03 08:44:45;;;;;;;2.50;2.30;;;17.20;41.90;;;;;;5013067;28;20274;-64
2021/12/03 08:47:13;;;;;;;2.78;2.58;;;17.20;41.90;;;;;;5013427;28;20240;-64
2021/12/03 08:49:46;;;;;;;3.40;2.80;;;17.20;42.10;;;;;;5013286;28;20216;-63
2021/12/03 08:52:46;;;;;;;5.35;3.13;;;17.20;42.10;;;;;;5013392;28;20644;-63
2021/12/03 08:55:14;;;;;;;3.47;2.80;;;17.30;41.90;;;;;;5013573;28;20271;-63
2021/12/03 08:57:41;;;;;;;3.60;2.53;;;17.20;41.80;;;;;;4998502;28;20225;-63
2021/12/03 09:00:11;;;;;;;3.22;2.50;;;17.20;41.80;;;;;;4998954;28;20298;-62
2021/12/03 09:02:39;;;;;;;2.72;2.53;;;17.30;41.90;;;;;;5017101;28;20552;-64
2021/12/03 09:05:07;;;;;;;2.70;2.50;;;17.30;41.80;;;;;;4998988;28;20220;-63
2021/12/03 09:07:34;;;;;;;2.20;2.10;;;17.20;41.80;;;;;;5016265;28;20196;-64
2021/12/03 09:10:01;;;;;;;2.35;2.10;;;17.20;41.80;;;;;;4998697;28;20701;-63
2021/12/03 09:12:29;;;;;;;2.47;2.28;;;17.30;41.90;;;;;;4999150;28;20231;-64
2021/12/03 09:14:59;;;;;;;2.22;2.03;;;17.30;42.10;;;;;;5016822;28;20708;-64
2021/12/03 09:17:44;;;;;;;2.47;1.98;;;17.20;41.80;;;;;;5016709;28;20207;-64
2021/12/03 09:20:23;;;;;;;2.15;2.05;;;17.30;41.80;;;;;;4999172;28;20189;-63
2021/12/03 09:22:52;;;;;;;2.05;1.95;;;17.30;41.80;;;;;;4999166;28;20714;-64
2021/12/03 09:25:23;;;;;;;2.17;2.00;;;17.30;42.00;;;;;;4998861;28;20228;-64
2021/12/03 09:27:52;;;;;;;4.03;2.50;;;17.30;41.90;;;;;;5016350;28;20177;-64
2021/12/03 09:30:19;;;;;;;1.85;1.75;;;17.30;41.80;;;;;;4998771;28;20227;-63
2021/12/03 09:32:52;;;;;;;2.47;2.10;;;17.30;41.70;;;;;;5016577;28;20190;-62
2021/12/03 09:35:19;;;;;;;1.98;1.80;;;17.30;41.70;;;;;;5016294;28;20227;-63
2021/12/03 09:37:46;;;;;;;2.30;2.10;;;17.30;41.80;;;;;;4998450;28;20201;-63
2021/12/03 09:40:20;;;;;;;1.92;1.83;;;17.40;41.80;;;;;;5016507;28;20244;-63
2021/12/03 09:42:47;;;;;;;1.95;1.85;;;17.30;41.70;;;;;;4998927;28;20197;-62
2021/12/03 09:45:15;;;;;;;2.00;1.90;;;17.30;41.80;;;;;;4998569;28;20307;-62
2021/12/03 09:47:42;;;;;;;2.20;2.00;;;17.40;42.20;;;;;;4998435;28;20193;-63
2021/12/03 09:50:12;;;;;;;2.08;1.90;;;17.40;41.60;;;;;;4998520;28;20263;-62
2021/12/03 09:52:45;;;;;;;2.00;1.90;;;17.40;41.60;;;;;;4999006;28;20243;-63
2021/12/03 09:55:13;;;;;;;2.25;2.03;;;17.40;41.60;;;;;;5016260;28;20223;-63
2021/12/03 09:57:45;;;;;;;2.38;1.90;;;17.40;41.70;;;;;;4998880;28;20632;-63
2021/12/03 10:00:22;;;;;;;1.90;1.80;;;17.40;41.50;;;;;;4998892;28;20261;-63
2021/12/03 10:14:08;;;;;;;2.13;2.03;;;17.50;41.30;;;;;;5000041;28;20595;-62
2021/12/03 10:16:53;;;;;;;1.70;1.60;;;17.50;41.50;;;;;;4999403;28;20192;-62
2021/12/03 10:19:31;;;;;;;1.92;1.83;;;17.60;41.30;;;;;;5016636;28;20235;-63
2021/12/03 10:24:58;;;;;;;1.75;1.65;;;17.60;41.60;;;;;;5012960;28;20224;-63
2021/12/03 10:30:46;;;;;;;2.33;1.92;;;17.60;41.50;;;;;;4955348;29;20796;-63
2021/12/03 10:33:42;;;;;;;2.13;1.92;;;17.60;42.00;;;;;;4947874;29;20215;-63
2021/12/03 10:39:14;;;;;;;1.80;1.70;;;17.60;41.20;;;;;;4972976;28;20203;-63
2021/12/03 10:41:52;;;;;;;1.90;1.80;;;17.60;41.30;;;;;;4997413;28;20196;-63
2021/12/03 10:44:42;;;;;;;1.70;1.60;;;17.70;41.20;;;;;;4997599;28;20216;-63
2021/12/03 10:47:20;;;;;;;1.90;1.73;;;17.70;41.00;;;;;;4997343;28;20688;-62
2021/12/03 10:50:03;;;;;;;2.13;1.90;;;17.70;41.40;;;;;;4997226;28;20200;-63
2021/12/03 10:52:37;;;;;;;2.58;1.90;;;17.70;41.10;;;;;;5015164;28;20189;-63
2021/12/03 11:01:44;;;;;;;1.83;1.73;;;17.70;41.70;;;;;;4975619;28;20201;-63
2021/12/03 11:04:49;;;;;;;1.67;1.58;;;17.70;41.40;;;;;;5014592;28;20227;-62
2021/12/03 11:35:56;;;;;;;2.08;1.80;;;18.10;41.40;;;;;;5109464;28;20539;-50
2021/12/03 13:25:44;;;;;;;1.80;1.70;;;18.80;40.30;;;;;;5126561;27;20191;-55
2021/12/03 13:56:59;;;;;;;1.75;1.65;;;18.60;40.90;;;;;;5132700;27;20208;-55
2021/12/03 14:39:02;;;;;;;2.25;1.58;;;18.50;40.80;;;;;;5135571;27;20557;-55
2021/12/03 14:42:00;;;;;;;1.85;1.70;;;18.50;41.00;;;;;;5136688;27;20180;-55
2021/12/03 14:44:31;;;;;;;2.75;1.70;;;18.50;41.00;;;;;;5118014;27;20220;-55
2021/12/03 14:53:12;;;;;;;1.92;1.83;;;18.50;41.00;;;;;;5073229;28;20356;-55
2021/12/03 14:55:45;;;;;;;1.90;1.80;;;18.40;40.90;;;;;;5132082;27;20205;-56
2021/12/03 14:58:15;;;;;;;1.90;1.80;;;18.40;40.90;;;;;;5136541;27;20212;-55
2021/12/03 15:00:50;;;;;;;1.90;1.80;;;18.40;41.10;;;;;;5135894;27;20216;-55
2021/12/03 15:03:41;;;;;;;1.85;1.75;;;18.40;41.10;;;;;;5136191;27;20540;-55
2021/12/03 15:06:19;;;;;;;1.90;1.80;;;18.40;41.20;;;;;;5117784;27;20185;-55
2021/12/03 15:08:51;;;;;;;1.92;1.73;;;18.40;41.40;;;;;;5135836;27;20525;-55
2021/12/03 15:25:09;;;;;;;2.35;2.15;;;18.30;41.40;;;;;;5108961;27;20192;-57
2021/12/03 15:33:24;;;;;;;2.20;2.00;;;18.30;41.30;;;;;;5135778;27;20695;-58
2021/12/03 15:35:57;;;;;;;2.33;2.00;;;18.30;41.50;;;;;;5117652;27;20197;-57
2021/12/03 15:58:27;;;;;;;2.28;2.08;;;18.20;41.60;;;;;;5134826;27;20572;-55
2021/12/03 16:03:51;;;;;;;2.78;2.13;;;18.20;41.60;;;;;;5116178;27;20575;-55
2021/12/03 16:06:28;;;;;;;2.60;2.40;;;18.10;41.70;;;;;;5116409;27;20688;-55
2021/12/03 16:08:59;;;;;;;4.30;2.72;;;18.10;41.40;;;;;;5134530;27;20291;-55
2021/12/03 16:11:36;;;;;;;3.55;2.33;;;18.10;41.50;;;;;;5116173;27;20190;-55
2021/12/03 16:14:24;;;;;;;2.70;2.42;;;18.10;41.60;;;;;;5116243;27;20306;-55
2021/12/03 16:23:02;;;;;;;2.53;2.33;;;18.00;41.80;;;;;;5125341;27;20188;-55
2021/12/03 16:25:55;;;;;;;2.47;2.28;;;18.00;41.70;;;;;;5116671;27;20192;-55
2021/12/03 16:53:22;;;;;;;4.80;3.00;;;17.90;41.80;;;;;;5133527;27;20197;-55
2021/12/03 16:55:59;;;;;;;3.13;2.47;;;17.90;41.90;;;;;;5115201;27;20215;-55
2021/12/03 16:58:26;;;;;;;3.80;2.60;;;17.90;41.90;;;;;;5133684;27;20213;-55
2021/12/03 17:00:58;;;;;;;3.15;2.50;;;17.90;41.80;;;;;;5133591;27;20189;-55
2021/12/03 17:03:28;;;;;;;3.08;2.63;;;17.90;41.90;;;;;;5133939;27;20260;-55
2021/12/03 17:09:08;;;;;;;2.90;2.42;;;17.90;42.00;;;;;;5079028;27;20224;-55
2021/12/03 17:11:46;;;;;;;2.95;2.30;;;17.90;41.70;;;;;;5133574;28;20208;-55
2021/12/03 17:20:15;;;;;;;3.88;2.60;;;17.90;42.00;;;;;;5114861;28;20607;-55
2021/12/03 17:47:45;;;;;;;4.68;3.03;;;17.90;41.80;;;;;;5114706;28;20181;-55
2021/12/03 17:50:25;;;;;;;4.28;2.55;;;17.90;41.60;;;;;;5133400;28;20640;-55
2021/12/03 17:58:26;;;;;;;6.22;3.17;;;18.00;41.80;;;;;;5133076;27;20216;-55
2021/12/03 18:00:59;;;;;;;4.22;2.88;;;18.00;41.80;;;;;;5118297;27;20618;-55
2021/12/03 18:03:33;;;;;;;4.68;2.90;;;17.90;41.60;;;;;;5118453;27;20597;-55
2021/12/03 18:09:19;;;;;;;3.72;2.60;;;18.00;41.70;;;;;;5015379;28;20208;-63
2021/12/03 18:51:08;;;;;;;4.53;3.17;;;17.90;41.30;;;;;;5062987;28;20272;-50
2021/12/03 18:53:46;;;;;;;4.95;3.38;;;17.90;41.30;;;;;;5109411;28;20190;-53
2021/12/03 18:56:17;;;;;;;5.40;3.17;;;17.90;41.20;;;;;;5111008;28;20212;-50
2021/12/03 18:58:45;;;;;;;5.68;3.17;;;17.90;41.50;;;;;;5109330;28;20251;-51
2021/12/03 19:01:13;;;;;;;3.65;3.20;;;17.90;41.20;;;;;;5109006;28;20200;-54
2021/12/03 19:03:58;;;;;;;4.88;3.20;;;18.00;41.10;;;;;;5110685;28;20189;-52
2021/12/03 19:06:29;;;;;;;4.80;3.33;;;17.90;40.90;;;;;;5108889;28;20189;-53
2021/12/03 19:08:58;;;;;;;5.22;3.25;;;17.90;41.40;;;;;;5110366;28;20170;-53
2021/12/03 19:11:29;;;;;;;4.00;3.22;;;18.00;42.10;;;;;;5110460;28;20585;-53
2021/12/03 19:13:56;;;;;;;4.63;3.25;;;17.90;41.70;;;;;;5108740;28;20591;-53
2021/12/03 19:16:25;;;;;;;5.22;3.20;;;18.00;41.70;;;;;;5109790;28;20267;-54
2021/12/03 19:18:54;;;;;;;4.28;3.30;;;18.00;41.70;;;;;;5108530;28;20216;-53
2021/12/03 19:21:23;;;;;;;5.28;3.42;;;18.00;41.80;;;;;;5109979;28;20193;-52
2021/12/03 19:23:54;;;;;;;4.47;3.20;;;18.00;41.60;;;;;;5109693;28;20666;-50
2021/12/03 19:26:22;;;;;;;4.25;3.30;;;18.00;41.40;;;;;;5108312;28;20194;-50
2021/12/03 19:28:49;;;;;;;3.83;3.40;;;18.00;41.60;;;;;;5096891;28;20280;-50
2021/12/03 19:31:17;;;;;;;4.78;3.50;;;18.00;40.70;;;;;;5095894;28;20267;-50
2021/12/03 19:33:44;;;;;;;4.70;3.15;;;18.00;40.40;;;;;;5095988;28;20194;-50